Terminal Aerodrome Forecast
Issued by NWS Duluth, MN

Home | Current Version | Previous Version | Text Only | Print | Product List | Glossary On
Versions: 1 2 3 4 5 6 7 8 9 10 11 12 13 14 15 16
000
FTUS43 KDLH 180542
TAFDLH
TAF
KDLH 180542Z 1806/1906 28006KT P6SM SKC
     FM181200 13004KT 5SM -SN BKN050
     FM181400 11008KT 1 1/2SM -SN OVC025
     FM181700 10011KT 1SM -SN OVC008
     FM182300 05008KT P6SM VCSH OVC016
     FM190300 01009KT P6SM BKN040=

USA.gov is the U.S. government's official web portal to all federal, state and local government web resources and services.